createdAt,value
2022-07-29T00:01:43.594Z,17.21
2022-07-29T00:04:13.377Z,17.19
2022-07-29T00:06:42.124Z,17.21
2022-07-29T00:09:09.981Z,17.22
2022-07-29T00:11:37.831Z,17.25
2022-07-29T00:14:06.951Z,17.20
2022-07-29T00:16:34.849Z,17.17
2022-07-29T00:19:02.877Z,17.17
2022-07-29T00:21:32.169Z,17.13
2022-07-29T00:24:00.170Z,17.17
2022-07-29T00:26:32.530Z,17.12
2022-07-29T00:29:31.933Z,17.15
2022-07-29T00:31:49.132Z,17.14
2022-07-29T00:34:31.011Z,17.12
2022-07-29T00:37:00.335Z,17.08
2022-07-29T00:39:28.287Z,17.05
2022-07-29T00:41:56.807Z,17.07
2022-07-29T00:44:24.659Z,17.07
2022-07-29T00:46:52.521Z,17.00
2022-07-29T00:49:20.496Z,16.93
2022-07-29T00:51:49.418Z,16.94
2022-07-29T00:54:19.040Z,16.94
2022-07-29T00:56:47.160Z,16.96
2022-07-29T00:59:14.970Z,16.89
2022-07-29T01:01:42.835Z,16.90
2022-07-29T01:04:10.743Z,16.90
2022-07-29T01:06:39.041Z,16.83
2022-07-29T01:09:07.408Z,16.87
2022-07-29T01:11:37.376Z,16.88
2022-07-29T01:14:09.133Z,16.88
2022-07-29T01:16:44.512Z,16.76
2022-07-29T01:19:33.765Z,16.84
2022-07-29T01:22:15.814Z,16.81
2022-07-29T01:25:04.483Z,16.81
2022-07-29T01:27:53.071Z,16.80
2022-07-29T01:30:24.579Z,16.81
2022-07-29T01:32:57.542Z,16.71
2022-07-29T01:35:28.339Z,16.70
2022-07-29T01:38:03.228Z,16.71
2022-07-29T01:40:36.834Z,16.71
2022-07-29T01:43:11.279Z,16.76
2022-07-29T01:45:43.472Z,16.74
2022-07-29T01:48:17.231Z,16.72
2022-07-29T01:50:51.371Z,16.77
2022-07-29T01:53:26.215Z,16.74
2022-07-29T01:55:55.545Z,16.71
2022-07-29T01:58:27.792Z,16.72
2022-07-29T02:00:59.339Z,16.68
2022-07-29T02:03:29.500Z,16.60
2022-07-29T02:06:00.361Z,16.57
2022-07-29T02:08:30.178Z,16.45
2022-07-29T02:10:59.862Z,16.47
2022-07-29T02:13:29.833Z,16.51
2022-07-29T02:16:00.457Z,16.43
2022-07-29T02:18:30.932Z,16.39
2022-07-29T02:21:01.522Z,16.38
2022-07-29T02:23:30.184Z,16.40
2022-07-29T02:25:59.921Z,16.32
2022-07-29T02:28:30.585Z,16.16
2022-07-29T02:31:03.270Z,16.16
2022-07-29T02:33:33.352Z,16.09
2022-07-29T02:36:02.874Z,16.12
2022-07-29T02:38:50.505Z,16.03
2022-07-29T02:41:20.816Z,16.08
2022-07-29T02:43:50.624Z,16.08
2022-07-29T02:46:29.533Z,16.08
2022-07-29T02:49:01.776Z,16.02
2022-07-29T02:51:43.468Z,16.03
2022-07-29T02:54:17.005Z,16.00
2022-07-29T02:56:46.353Z,15.90
2022-07-29T02:59:17.828Z,15.97
2022-07-29T03:01:47.859Z,15.94
2022-07-29T03:04:18.584Z,15.88
2022-07-29T03:06:48.127Z,15.94
2022-07-29T03:09:16.934Z,15.99
2022-07-29T03:11:50.605Z,15.95
2022-07-29T03:14:20.996Z,15.96
2022-07-29T03:16:51.701Z,16.03
2022-07-29T03:19:21.103Z,16.01
2022-07-29T03:21:49.317Z,15.96
2022-07-29T03:24:30.676Z,15.85
2022-07-29T03:26:58.959Z,15.98
2022-07-29T03:29:33.268Z,15.86
2022-07-29T03:32:08.035Z,15.94
2022-07-29T03:34:37.571Z,15.84
2022-07-29T03:37:06.730Z,15.90
2022-07-29T03:39:38.591Z,15.87
2022-07-29T03:42:08.824Z,15.87
2022-07-29T03:44:38.267Z,15.92
2022-07-29T03:47:10.212Z,15.94
2022-07-29T03:49:39.787Z,15.95
2022-07-29T03:52:08.016Z,15.98
2022-07-29T03:54:36.201Z,15.97
2022-07-29T03:57:07.773Z,15.89
2022-07-29T03:59:36.430Z,15.91
2022-07-29T04:02:05.310Z,15.87
2022-07-29T04:04:37.040Z,15.90
2022-07-29T04:07:05.551Z,15.94
2022-07-29T04:09:33.755Z,15.90
2022-07-29T04:12:04.086Z,15.92
2022-07-29T04:14:33.163Z,15.99
2022-07-29T04:17:01.179Z,15.89
2022-07-29T04:19:29.576Z,15.98
2022-07-29T04:21:58.785Z,15.92
2022-07-29T04:24:26.654Z,15.88
2022-07-29T04:26:55.274Z,15.88
2022-07-29T04:29:23.148Z,15.89
2022-07-29T04:31:50.969Z,16.02
2022-07-29T04:34:19.465Z,16.05
2022-07-29T04:36:47.805Z,15.97
2022-07-29T04:39:22.772Z,16.08
2022-07-29T04:41:52.594Z,16.06
2022-07-29T04:44:26.574Z,16.13
2022-07-29T04:46:58.492Z,16.13
2022-07-29T04:49:27.017Z,16.19
2022-07-29T04:51:55.728Z,16.22
2022-07-29T04:54:25.558Z,16.25
2022-07-29T04:56:53.551Z,16.18
2022-07-29T04:59:21.341Z,16.27
2022-07-29T05:01:49.289Z,16.28
2022-07-29T05:04:17.431Z,16.28
2022-07-29T05:06:45.528Z,16.30
2022-07-29T05:09:13.372Z,16.38
2022-07-29T05:11:42.574Z,16.43
2022-07-29T05:14:10.579Z,16.51
2022-07-29T05:16:40.066Z,16.57
2022-07-29T05:19:13.674Z,16.56
2022-07-29T05:21:42.117Z,16.63
2022-07-29T05:24:10.105Z,16.74
2022-07-29T05:26:37.945Z,16.78
2022-07-29T05:29:07.112Z,16.93
2022-07-29T05:31:35.470Z,16.98
2022-07-29T05:34:03.561Z,17.15
2022-07-29T05:36:31.447Z,17.20
2022-07-29T05:38:59.297Z,17.24
2022-07-29T05:41:27.212Z,17.31
2022-07-29T05:43:55.070Z,17.36
2022-07-29T05:46:24.360Z,17.30
2022-07-29T05:48:52.513Z,17.36
2022-07-29T05:51:20.316Z,17.33
2022-07-29T05:53:48.200Z,17.43
2022-07-29T05:56:16.365Z,17.47
2022-07-29T05:58:44.284Z,17.53
2022-07-29T06:01:12.137Z,17.62
2022-07-29T06:03:42.281Z,17.66
2022-07-29T06:06:10.114Z,17.79
2022-07-29T06:08:38.563Z,17.66
2022-07-29T06:11:07.136Z,17.72
2022-07-29T06:13:34.911Z,17.49
2022-07-29T06:16:02.850Z,17.60
2022-07-29T06:18:30.746Z,17.72
2022-07-29T06:21:00.060Z,17.83
2022-07-29T06:23:27.941Z,18.01
2022-07-29T06:25:55.788Z,18.23
2022-07-29T06:28:23.636Z,18.41
2022-07-29T06:30:51.466Z,18.46
2022-07-29T06:33:20.204Z,18.52
2022-07-29T06:35:53.627Z,18.63
2022-07-29T06:38:30.682Z,18.78
2022-07-29T06:41:03.088Z,19.03
2022-07-29T06:43:34.613Z,19.06
2022-07-29T06:46:03.505Z,19.13
2022-07-29T06:48:31.823Z,19.29
2022-07-29T06:51:00.146Z,19.35
2022-07-29T06:53:29.750Z,19.50
2022-07-29T06:55:59.112Z,19.48
2022-07-29T06:58:27.303Z,19.38
2022-07-29T07:01:00.209Z,19.54
2022-07-29T07:03:28.208Z,19.76
2022-07-29T07:05:56.843Z,19.72
2022-07-29T07:08:25.559Z,19.78
2022-07-29T07:10:56.216Z,19.91
2022-07-29T07:13:24.017Z,19.74
2022-07-29T07:15:52.784Z,19.93
2022-07-29T07:18:21.105Z,20.13
2022-07-29T07:20:51.946Z,20.35
2022-07-29T07:23:19.821Z,20.60
2022-07-29T07:25:47.651Z,20.68
2022-07-29T07:28:16.838Z,20.84
2022-07-29T07:30:44.776Z,20.66
2022-07-29T07:33:12.683Z,20.74
2022-07-29T07:35:40.825Z,20.78
2022-07-29T07:38:12.937Z,20.93
2022-07-29T07:40:41.286Z,20.94
2022-07-29T07:43:09.156Z,21.10
2022-07-29T07:45:38.943Z,20.98
2022-07-29T07:48:07.242Z,21.21
2022-07-29T07:50:35.148Z,21.32
2022-07-29T07:53:03.218Z,21.24
2022-07-29T07:55:47.544Z,21.17
2022-07-29T07:58:19.240Z,21.08
2022-07-29T08:00:49.039Z,21.02
2022-07-29T08:03:17.475Z,21.18
2022-07-29T08:05:47.483Z,21.11
2022-07-29T08:08:15.353Z,21.09
2022-07-29T08:10:56.785Z,21.23
2022-07-29T08:13:28.210Z,21.26
2022-07-29T08:16:01.943Z,21.18
2022-07-29T08:18:31.796Z,20.99
2022-07-29T08:21:00.455Z,21.09
2022-07-29T08:23:46.001Z,21.11
2022-07-29T08:26:16.996Z,21.10
2022-07-29T08:28:46.921Z,21.02
2022-07-29T08:31:16.661Z,21.02
2022-07-29T08:33:47.676Z,21.08
2022-07-29T08:36:15.597Z,20.96
2022-07-29T08:38:43.608Z,21.13
2022-07-29T08:41:11.571Z,21.17
2022-07-29T08:43:39.714Z,21.30
2022-07-29T08:46:07.965Z,21.41
2022-07-29T08:48:38.511Z,21.59
2022-07-29T08:51:09.000Z,21.68
2022-07-29T08:53:39.139Z,21.53
2022-07-29T08:56:07.972Z,21.63
2022-07-29T08:58:38.297Z,21.86
2022-07-29T09:01:07.574Z,22.02
2022-07-29T09:03:40.043Z,21.96
2022-07-29T09:06:08.403Z,22.22
2022-07-29T09:08:36.626Z,22.32
2022-07-29T09:11:05.303Z,22.46
2022-07-29T09:13:33.894Z,22.48
2022-07-29T09:16:07.149Z,22.72
2022-07-29T09:18:37.921Z,22.88
2022-07-29T09:21:25.943Z,23.17
2022-07-29T09:24:10.170Z,23.36
2022-07-29T09:26:39.433Z,23.51
2022-07-29T09:29:12.062Z,23.69
2022-07-29T09:31:43.767Z,23.79
2022-07-29T09:34:13.126Z,23.61
2022-07-29T09:36:43.604Z,23.64
2022-07-29T09:39:11.670Z,23.58
2022-07-29T09:41:48.032Z,23.66
2022-07-29T09:44:15.870Z,23.78
2022-07-29T09:46:58.410Z,23.55
2022-07-29T09:49:27.134Z,23.81
2022-07-29T09:52:07.354Z,23.73
2022-07-29T09:54:38.637Z,23.60
2022-07-29T09:57:09.890Z,23.47
2022-07-29T09:59:37.727Z,23.72
2022-07-29T10:02:23.718Z,23.94
2022-07-29T10:04:53.008Z,24.05
2022-07-29T10:07:22.223Z,24.10
2022-07-29T10:09:56.374Z,24.06
2022-07-29T10:12:25.032Z,24.10
2022-07-29T10:14:53.710Z,24.10
2022-07-29T10:17:22.709Z,24.14
2022-07-29T10:19:52.866Z,24.12
2022-07-29T10:22:43.670Z,24.11
2022-07-29T10:25:11.400Z,24.20
2022-07-29T10:27:40.135Z,24.40
2022-07-29T10:30:11.758Z,24.57
2022-07-29T10:32:54.318Z,24.53
2022-07-29T10:35:37.879Z,24.72
2022-07-29T10:38:45.733Z,24.71
2022-07-29T10:41:32.353Z,24.65
2022-07-29T10:44:07.404Z,24.37
2022-07-29T10:46:37.965Z,24.28
2022-07-29T10:49:11.607Z,24.12
2022-07-29T10:51:58.481Z,24.14
2022-07-29T10:54:46.158Z,24.18
2022-07-29T10:57:52.539Z,24.15
2022-07-29T11:00:33.033Z,24.28
2022-07-29T11:03:04.797Z,24.41
2022-07-29T11:05:59.914Z,24.45
2022-07-29T11:08:28.908Z,24.48
2022-07-29T11:11:32.306Z,24.55
2022-07-29T11:14:02.055Z,24.48
2022-07-29T11:17:07.157Z,24.66
2022-07-29T11:19:37.119Z,24.53
2022-07-29T11:22:11.322Z,24.44
2022-07-29T11:24:50.043Z,24.57
2022-07-29T11:27:20.906Z,24.55
2022-07-29T11:29:55.777Z,24.37
2022-07-29T11:32:25.410Z,24.34
2022-07-29T11:35:18.030Z,24.34
2022-07-29T11:37:52.830Z,24.48
2022-07-29T11:40:25.590Z,24.45
2022-07-29T11:42:53.834Z,24.47
2022-07-29T11:45:42.697Z,24.51
2022-07-29T11:48:28.432Z,24.66
2022-07-29T11:51:13.348Z,25.04
2022-07-29T11:53:41.777Z,25.27
2022-07-29T11:56:11.304Z,25.50
2022-07-29T11:58:44.314Z,25.62
2022-07-29T12:01:19.336Z,25.87
2022-07-29T12:03:47.164Z,25.83
2022-07-29T12:06:18.010Z,25.66
2022-07-29T12:08:47.380Z,25.72
2022-07-29T12:11:21.245Z,25.79
2022-07-29T12:13:50.490Z,25.87
2022-07-29T12:16:29.395Z,26.17
2022-07-29T12:18:59.383Z,26.33
2022-07-29T12:21:29.157Z,26.41
2022-07-29T12:24:03.401Z,26.47
2022-07-29T12:26:35.731Z,26.40
2022-07-29T12:29:07.309Z,26.47
2022-07-29T12:31:42.407Z,26.71
2022-07-29T12:34:12.781Z,26.91
2022-07-29T12:36:40.947Z,27.08
2022-07-29T12:39:10.090Z,27.12
2022-07-29T12:41:38.179Z,27.00
2022-07-29T12:44:06.441Z,26.88
2022-07-29T12:46:34.388Z,26.80
2022-07-29T12:49:04.358Z,26.72
2022-07-29T12:51:33.035Z,26.63
2022-07-29T12:54:06.023Z,26.62
2022-07-29T12:56:42.821Z,26.57
2022-07-29T12:59:16.996Z,26.64
2022-07-29T13:01:45.074Z,26.67
2022-07-29T13:04:26.914Z,26.67
2022-07-29T13:07:01.185Z,26.59
2022-07-29T13:09:40.398Z,26.61
2022-07-29T13:12:10.882Z,26.80
2022-07-29T13:14:40.300Z,26.69
2022-07-29T13:17:09.832Z,26.74
2022-07-29T13:19:41.442Z,26.80
2022-07-29T13:22:09.590Z,26.83
2022-07-29T13:24:48.189Z,26.92
2022-07-29T13:27:16.393Z,27.03
2022-07-29T13:29:44.229Z,27.08
2022-07-29T13:32:14.233Z,27.19
2022-07-29T13:34:43.689Z,27.21
2022-07-29T13:37:12.105Z,27.30
2022-07-29T13:39:40.717Z,27.15
2022-07-29T13:42:11.034Z,26.94
2022-07-29T13:44:41.030Z,26.82
2022-07-29T13:47:09.223Z,26.75
2022-07-29T13:49:37.481Z,26.72
2022-07-29T13:52:08.381Z,26.61
2022-07-29T13:54:42.107Z,26.66
2022-07-29T13:57:11.552Z,26.86
2022-07-29T13:59:40.011Z,27.09
2022-07-29T14:02:08.356Z,27.27
2022-07-29T14:04:36.642Z,27.39
2022-07-29T14:07:09.289Z,27.46
2022-07-29T14:09:41.435Z,27.67
2022-07-29T14:12:11.039Z,28.05
2022-07-29T14:14:38.860Z,28.49
2022-07-29T14:17:08.095Z,28.73
2022-07-29T14:19:38.693Z,28.86
2022-07-29T14:22:09.483Z,29.24
2022-07-29T14:24:39.593Z,29.35
2022-07-29T14:27:09.188Z,29.44
2022-07-29T14:29:38.738Z,29.49
2022-07-29T14:32:07.879Z,29.47
2022-07-29T14:34:36.594Z,29.35
2022-07-29T14:37:06.414Z,29.20
2022-07-29T14:39:42.832Z,29.03
2022-07-29T14:42:11.704Z,29.25
2022-07-29T14:44:42.081Z,29.53
2022-07-29T14:47:10.343Z,29.30
2022-07-29T14:49:38.515Z,29.20
2022-07-29T14:52:06.913Z,29.29
2022-07-29T14:54:36.102Z,29.04
2022-07-29T14:57:04.063Z,28.89
2022-07-29T14:59:31.973Z,28.97
2022-07-29T15:02:00.202Z,28.87
2022-07-29T15:04:32.635Z,29.00
2022-07-29T15:07:00.592Z,29.02
2022-07-29T15:09:28.477Z,29.16
2022-07-29T15:11:58.027Z,29.41
2022-07-29T15:14:26.090Z,29.70
2022-07-29T15:16:54.297Z,30.03
2022-07-29T15:19:22.227Z,30.16
2022-07-29T15:21:51.411Z,30.04
2022-07-29T15:24:19.556Z,30.63
2022-07-29T15:26:47.939Z,31.21
2022-07-29T15:29:18.335Z,31.41
2022-07-29T15:31:46.249Z,31.90
2022-07-29T15:34:14.254Z,31.94
2022-07-29T15:36:52.094Z,31.62
2022-07-29T15:39:21.174Z,30.91
2022-07-29T15:41:49.127Z,30.51
2022-07-29T15:44:19.878Z,30.20
2022-07-29T15:47:08.053Z,29.72
2022-07-29T15:49:47.134Z,29.71
2022-07-29T15:52:19.024Z,29.43
2022-07-29T15:54:52.715Z,29.21
2022-07-29T15:57:20.561Z,29.09
2022-07-29T15:59:49.786Z,28.91
2022-07-29T16:02:17.726Z,28.73
2022-07-29T16:04:45.623Z,28.59
2022-07-29T16:07:14.223Z,28.41
2022-07-29T16:09:42.532Z,28.29
2022-07-29T16:12:15.435Z,28.22
2022-07-29T16:14:44.232Z,28.01
2022-07-29T16:17:14.358Z,27.90
2022-07-29T16:19:43.309Z,27.81
2022-07-29T16:22:11.349Z,27.67
2022-07-29T16:24:39.350Z,27.66
2022-07-29T16:27:07.838Z,27.67
2022-07-29T16:29:36.929Z,27.76
2022-07-29T16:32:05.518Z,27.88
2022-07-29T16:34:34.950Z,27.95
2022-07-29T16:37:03.342Z,27.90
2022-07-29T16:39:34.683Z,27.93
2022-07-29T16:42:05.154Z,27.97
2022-07-29T16:44:35.369Z,28.00
2022-07-29T16:47:03.965Z,27.87
2022-07-29T16:49:32.245Z,27.90
2022-07-29T16:52:01.765Z,27.95
2022-07-29T16:54:29.797Z,27.75
2022-07-29T16:57:00.585Z,27.72
2022-07-29T16:59:29.085Z,27.59
2022-07-29T17:01:57.705Z,27.53
2022-07-29T17:04:26.024Z,27.49
2022-07-29T17:06:53.899Z,27.46
2022-07-29T17:09:23.294Z,27.42
2022-07-29T17:11:55.147Z,27.36
2022-07-29T17:14:25.524Z,27.29
2022-07-29T17:17:01.186Z,27.20
2022-07-29T17:19:31.857Z,27.07
2022-07-29T17:22:14.055Z,26.96
2022-07-29T17:24:45.348Z,26.88
2022-07-29T17:27:13.745Z,26.77
2022-07-29T17:29:42.244Z,26.72
2022-07-29T17:32:11.527Z,26.67
2022-07-29T17:34:40.545Z,26.59
2022-07-29T17:37:10.649Z,26.52
2022-07-29T17:39:40.868Z,26.45
2022-07-29T17:42:10.998Z,26.39
2022-07-29T17:44:39.242Z,26.33
2022-07-29T17:47:07.919Z,26.25
2022-07-29T17:49:43.736Z,26.19
2022-07-29T17:52:11.888Z,26.13
2022-07-29T17:54:39.739Z,26.09
2022-07-29T17:57:08.204Z,26.04
2022-07-29T17:59:37.441Z,26.00
2022-07-29T18:02:05.454Z,25.96
2022-07-29T18:04:33.737Z,25.94
2022-07-29T18:07:01.936Z,25.88
2022-07-29T18:09:30.052Z,25.84
2022-07-29T18:11:57.838Z,25.76
2022-07-29T18:14:25.955Z,25.72
2022-07-29T18:16:57.613Z,25.68
2022-07-29T18:19:25.703Z,25.60
2022-07-29T18:21:55.268Z,25.56
2022-07-29T18:24:25.406Z,25.54
2022-07-29T18:26:53.800Z,25.49
2022-07-29T18:29:21.935Z,25.46
2022-07-29T18:31:50.126Z,25.40
2022-07-29T18:34:20.121Z,25.35
2022-07-29T18:36:49.361Z,25.29
2022-07-29T18:39:20.927Z,25.25
2022-07-29T18:41:52.133Z,25.19
2022-07-29T18:44:21.905Z,25.14
2022-07-29T18:46:51.347Z,25.10
2022-07-29T18:49:20.937Z,25.05
2022-07-29T18:51:48.949Z,24.99
2022-07-29T18:54:17.547Z,24.95
2022-07-29T18:56:48.632Z,24.91
2022-07-29T18:59:19.609Z,24.88
2022-07-29T19:01:48.433Z,24.82
2022-07-29T19:04:17.022Z,24.79
2022-07-29T19:06:46.440Z,24.74
2022-07-29T19:09:14.365Z,24.69
2022-07-29T19:11:42.176Z,24.65
2022-07-29T19:14:10.026Z,24.62
2022-07-29T19:16:37.936Z,24.58
2022-07-29T19:19:07.192Z,24.55
2022-07-29T19:21:35.887Z,24.51
2022-07-29T19:24:07.730Z,24.46
2022-07-29T19:26:42.058Z,24.44
2022-07-29T19:29:09.995Z,24.40
2022-07-29T19:31:37.986Z,24.37
2022-07-29T19:34:05.942Z,24.34
2022-07-29T19:36:33.827Z,24.30
2022-07-29T19:39:02.146Z,24.23
2022-07-29T19:41:31.495Z,24.19
2022-07-29T19:43:59.389Z,24.13
2022-07-29T19:46:29.053Z,23.98
2022-07-29T19:48:57.844Z,23.88
2022-07-29T19:51:28.073Z,23.83
2022-07-29T19:53:56.041Z,23.88
2022-07-29T19:56:26.563Z,23.86
2022-07-29T19:58:55.771Z,23.83
2022-07-29T20:01:24.685Z,23.82
2022-07-29T20:03:53.801Z,23.60
2022-07-29T20:06:22.996Z,23.64
2022-07-29T20:08:55.411Z,23.40
2022-07-29T20:11:26.430Z,23.32
2022-07-29T20:13:55.600Z,23.03
2022-07-29T20:16:23.532Z,22.94
2022-07-29T20:18:53.360Z,22.96
2022-07-29T20:21:21.204Z,22.83
2022-07-29T20:23:49.023Z,22.66
2022-07-29T20:26:16.809Z,22.73
2022-07-29T20:28:47.632Z,22.46
2022-07-29T20:31:18.856Z,22.43
2022-07-29T20:33:46.863Z,22.36
2022-07-29T20:36:14.872Z,22.33
2022-07-29T20:38:42.670Z,22.18
2022-07-29T20:41:10.523Z,22.28
2022-07-29T20:43:39.183Z,22.32
2022-07-29T20:46:07.267Z,22.22
2022-07-29T20:48:36.449Z,22.31
2022-07-29T20:51:04.249Z,22.30
2022-07-29T20:53:33.239Z,22.16
2022-07-29T20:56:01.504Z,22.09
2022-07-29T20:58:29.278Z,22.16
2022-07-29T21:00:57.530Z,21.95
2022-07-29T21:03:25.367Z,22.04
2022-07-29T21:05:54.571Z,22.01
2022-07-29T21:08:22.401Z,21.95
2022-07-29T21:10:50.222Z,21.98
2022-07-29T21:13:19.699Z,21.78
2022-07-29T21:15:49.548Z,21.94
2022-07-29T21:18:27.808Z,21.95
2022-07-29T21:20:57.430Z,21.95
2022-07-29T21:23:25.793Z,21.86
2022-07-29T21:25:54.197Z,21.85
2022-07-29T21:28:27.116Z,21.90
2022-07-29T21:30:55.031Z,21.83
2022-07-29T21:33:23.072Z,21.84
2022-07-29T21:38:40.209Z,21.73
2022-07-29T21:41:08.137Z,21.76
2022-07-29T21:43:36.052Z,21.70
2022-07-29T21:46:04.074Z,21.59
2022-07-29T21:48:31.907Z,21.72
2022-07-29T21:50:59.891Z,21.71
2022-07-29T21:53:27.843Z,21.60
2022-07-29T21:55:57.208Z,21.54
2022-07-29T21:58:25.305Z,21.60
2022-07-29T22:00:53.875Z,21.48
2022-07-29T22:03:21.982Z,21.48
2022-07-29T22:05:49.865Z,21.43
2022-07-29T22:08:17.677Z,21.40
2022-07-29T22:10:45.540Z,21.15
2022-07-29T22:13:14.718Z,21.14
2022-07-29T22:15:46.962Z,20.91
2022-07-29T22:18:20.767Z,20.77
2022-07-29T22:20:49.466Z,20.65
2022-07-29T22:23:17.481Z,20.66
2022-07-29T22:25:45.305Z,20.49
2022-07-29T22:28:14.510Z,20.52
2022-07-29T22:30:42.467Z,20.37
2022-07-29T22:33:17.464Z,20.30
2022-07-29T22:35:48.626Z,20.12
2022-07-29T22:38:17.064Z,19.67
2022-07-29T22:40:45.005Z,19.57
2022-07-29T22:43:14.480Z,19.75
2022-07-29T22:45:42.515Z,19.82
2022-07-29T22:48:10.524Z,19.65
2022-07-29T22:50:39.449Z,19.68
2022-07-29T22:53:07.223Z,19.65
2022-07-29T22:55:35.062Z,19.63
2022-07-29T22:58:02.876Z,19.54
2022-07-29T23:00:32.306Z,19.38
2022-07-29T23:03:00.177Z,19.36
2022-07-29T23:05:28.085Z,19.38
2022-07-29T23:07:55.980Z,19.32
2022-07-29T23:10:23.771Z,19.26
2022-07-29T23:12:51.547Z,19.18
2022-07-29T23:15:19.579Z,19.22
2022-07-29T23:17:49.019Z,19.24
2022-07-29T23:20:16.869Z,19.18
2022-07-29T23:22:44.817Z,19.17
2022-07-29T23:25:12.684Z,19.10
2022-07-29T23:27:40.561Z,19.08
2022-07-29T23:30:09.338Z,18.98
2022-07-29T23:32:37.143Z,18.84
2022-07-29T23:35:08.130Z,18.87
2022-07-29T23:37:36.547Z,19.02
2022-07-29T23:40:04.861Z,19.07
2022-07-29T23:42:32.751Z,19.01
2022-07-29T23:45:00.553Z,18.94
2022-07-29T23:47:29.012Z,19.06
2022-07-29T23:49:56.886Z,19.01
2022-07-29T23:52:26.081Z,18.97
2022-07-29T23:54:55.191Z,19.04
2022-07-29T23:57:42.949Z,18.97
